sensor_id;sensor_type;location;lat;lon;timestamp;temperature;humidity
17152;DHT22;8691;50.828;4.700;2022-09-09T00:00:55;14.80;99.90
17152;DHT22;8691;50.828;4.700;2022-09-09T00:03:18;14.80;99.90
17152;DHT22;8691;50.828;4.700;2022-09-09T00:05:47;14.80;99.90
17152;DHT22;8691;50.828;4.700;2022-09-09T00:10:40;14.70;99.90
17152;DHT22;8691;50.828;4.700;2022-09-09T00:16:00;14.70;99.90
17152;DHT22;8691;50.828;4.700;2022-09-09T00:18:31;14.70;99.90
17152;DHT22;8691;50.828;4.700;2022-09-09T00:21:21;14.70;99.90
17152;DHT22;8691;50.828;4.700;2022-09-09T00:23:34;14.70;99.90
17152;DHT22;8691;50.828;4.700;2022-09-09T00:26:08;14.70;99.90
17152;DHT22;8691;50.828;4.700;2022-09-09T00:28:33;14.80;99.90
17152;DHT22;8691;50.828;4.700;2022-09-09T00:31:26;14.90;99.90
17152;DHT22;8691;50.828;4.700;2022-09-09T00:33:30;14.90;99.90
17152;DHT22;8691;50.828;4.700;2022-09-09T00:35:57;14.90;99.90
17152;DHT22;8691;50.828;4.700;2022-09-09T00:38:24;14.90;99.90
17152;DHT22;8691;50.828;4.700;2022-09-09T00:40:58;14.80;99.90
17152;DHT22;8691;50.828;4.700;2022-09-09T00:43:32;14.80;99.90
17152;DHT22;8691;50.828;4.700;2022-09-09T00:46:17;14.80;99.90
17152;DHT22;8691;50.828;4.700;2022-09-09T00:54:28;14.80;99.90
17152;DHT22;8691;50.828;4.700;2022-09-09T00:56:57;14.90;99.90
17152;DHT22;8691;50.828;4.700;2022-09-09T01:02:12;14.90;99.90
17152;DHT22;8691;50.828;4.700;2022-09-09T01:04:35;14.90;99.90
17152;DHT22;8691;50.828;4.700;2022-09-09T01:07:23;14.80;99.90
17152;DHT22;8691;50.828;4.700;2022-09-09T01:09:51;14.80;99.90
17152;DHT22;8691;50.828;4.700;2022-09-09T01:14:50;14.80;99.90
17152;DHT22;8691;50.828;4.700;2022-09-09T01:17:30;14.80;99.90
17152;DHT22;8691;50.828;4.700;2022-09-09T01:22:35;14.80;99.90
17152;DHT22;8691;50.828;4.700;2022-09-09T01:25:21;14.80;99.90
17152;DHT22;8691;50.828;4.700;2022-09-09T01:27:48;14.90;99.90
17152;DHT22;8691;50.828;4.700;2022-09-09T01:30:15;14.90;99.90
17152;DHT22;8691;50.828;4.700;2022-09-09T01:32:45;15.00;99.90
17152;DHT22;8691;50.828;4.700;2022-09-09T01:35:29;15.00;99.90
17152;DHT22;8691;50.828;4.700;2022-09-09T01:37:51;15.00;99.90
17152;DHT22;8691;50.828;4.700;2022-09-09T01:40:18;15.00;99.90
17152;DHT22;8691;50.828;4.700;2022-09-09T01:42:45;15.00;99.90
17152;DHT22;8691;50.828;4.700;2022-09-09T01:45:12;15.00;99.90
17152;DHT22;8691;50.828;4.700;2022-09-09T01:47:40;15.00;99.90
17152;DHT22;8691;50.828;4.700;2022-09-09T01:50:08;15.00;99.90
17152;DHT22;8691;50.828;4.700;2022-09-09T01:52:34;14.90;99.90
17152;DHT22;8691;50.828;4.700;2022-09-09T01:55:01;14.90;99.90
17152;DHT22;8691;50.828;4.700;2022-09-09T01:57:30;15.00;99.90
17152;DHT22;8691;50.828;4.700;2022-09-09T02:00:08;15.00;99.90
17152;DHT22;8691;50.828;4.700;2022-09-09T02:02:36;15.10;99.90
17152;DHT22;8691;50.828;4.700;2022-09-09T02:05:10;15.10;99.90
17152;DHT22;8691;50.828;4.700;2022-09-09T02:13:10;15.10;99.90
17152;DHT22;8691;50.828;4.700;2022-09-09T02:15:34;15.10;99.90
17152;DHT22;8691;50.828;4.700;2022-09-09T02:18:00;15.10;99.90
17152;DHT22;8691;50.828;4.700;2022-09-09T02:20:26;15.10;99.90
17152;DHT22;8691;50.828;4.700;2022-09-09T02:22:53;15.10;99.90
17152;DHT22;8691;50.828;4.700;2022-09-09T02:25:21;15.10;99.90
17152;DHT22;8691;50.828;4.700;2022-09-09T02:27:47;15.10;99.90
17152;DHT22;8691;50.828;4.700;2022-09-09T02:30:14;15.00;99.90
17152;DHT22;8691;50.828;4.700;2022-09-09T02:32:41;15.00;99.90
17152;DHT22;8691;50.828;4.700;2022-09-09T02:35:12;15.00;99.90
17152;DHT22;8691;50.828;4.700;2022-09-09T02:37:38;15.00;99.90
17152;DHT22;8691;50.828;4.700;2022-09-09T02:40:06;14.90;99.90
17152;DHT22;8691;50.828;4.700;2022-09-09T02:42:38;14.90;99.90
17152;DHT22;8691;50.828;4.700;2022-09-09T02:45:00;14.90;99.90
17152;DHT22;8691;50.828;4.700;2022-09-09T02:47:37;14.90;99.90
17152;DHT22;8691;50.828;4.700;2022-09-09T02:50:19;14.90;99.90
17152;DHT22;8691;50.828;4.700;2022-09-09T02:55:37;14.90;99.90
17152;DHT22;8691;50.828;4.700;2022-09-09T02:58:03;14.80;99.90
17152;DHT22;8691;50.828;4.700;2022-09-09T03:00:30;14.90;99.90
17152;DHT22;8691;50.828;4.700;2022-09-09T03:02:57;14.80;99.90
17152;DHT22;8691;50.828;4.700;2022-09-09T03:05:24;14.90;99.90
17152;DHT22;8691;50.828;4.700;2022-09-09T03:07:51;15.00;99.90
17152;DHT22;8691;50.828;4.700;2022-09-09T03:10:18;15.00;99.90
17152;DHT22;8691;50.828;4.700;2022-09-09T03:12:45;15.00;99.90
17152;DHT22;8691;50.828;4.700;2022-09-09T03:15:12;15.00;99.90
17152;DHT22;8691;50.828;4.700;2022-09-09T03:17:39;15.00;99.90
17152;DHT22;8691;50.828;4.700;2022-09-09T03:20:06;14.90;99.90
17152;DHT22;8691;50.828;4.700;2022-09-09T03:22:32;14.90;99.90
17152;DHT22;8691;50.828;4.700;2022-09-09T03:24:59;14.90;99.90
17152;DHT22;8691;50.828;4.700;2022-09-09T03:27:27;14.90;99.90
17152;DHT22;8691;50.828;4.700;2022-09-09T03:29:54;14.80;99.90
17152;DHT22;8691;50.828;4.700;2022-09-09T03:32:21;14.80;99.90
17152;DHT22;8691;50.828;4.700;2022-09-09T03:34:48;14.90;99.90
17152;DHT22;8691;50.828;4.700;2022-09-09T03:37:15;14.90;99.90
17152;DHT22;8691;50.828;4.700;2022-09-09T03:39:41;14.90;99.90
17152;DHT22;8691;50.828;4.700;2022-09-09T03:42:08;14.80;99.90
17152;DHT22;8691;50.828;4.700;2022-09-09T03:44:35;14.90;99.90
17152;DHT22;8691;50.828;4.700;2022-09-09T03:47:01;14.90;99.90
17152;DHT22;8691;50.828;4.700;2022-09-09T03:49:28;14.90;99.90
17152;DHT22;8691;50.828;4.700;2022-09-09T03:51:56;14.90;99.90
17152;DHT22;8691;50.828;4.700;2022-09-09T03:54:23;14.90;99.90
17152;DHT22;8691;50.828;4.700;2022-09-09T03:56:49;14.90;99.90
17152;DHT22;8691;50.828;4.700;2022-09-09T03:59:16;14.90;99.90
17152;DHT22;8691;50.828;4.700;2022-09-09T04:01:43;14.80;99.90
17152;DHT22;8691;50.828;4.700;2022-09-09T04:04:10;14.80;99.90
17152;DHT22;8691;50.828;4.700;2022-09-09T04:06:37;14.80;99.90
17152;DHT22;8691;50.828;4.700;2022-09-09T04:09:04;14.70;99.90
17152;DHT22;8691;50.828;4.700;2022-09-09T04:11:31;14.70;99.90
17152;DHT22;8691;50.828;4.700;2022-09-09T04:13:57;14.70;99.90
17152;DHT22;8691;50.828;4.700;2022-09-09T04:16:24;14.70;99.90
17152;DHT22;8691;50.828;4.700;2022-09-09T04:18:51;14.70;99.90
17152;DHT22;8691;50.828;4.700;2022-09-09T04:21:18;14.70;99.90
17152;DHT22;8691;50.828;4.700;2022-09-09T04:23:45;14.70;99.90
17152;DHT22;8691;50.828;4.700;2022-09-09T04:26:12;14.70;99.90
17152;DHT22;8691;50.828;4.700;2022-09-09T04:28:38;14.70;99.90
17152;DHT22;8691;50.828;4.700;2022-09-09T04:31:15;14.70;99.90
17152;DHT22;8691;50.828;4.700;2022-09-09T04:33:38;14.80;99.90
17152;DHT22;8691;50.828;4.700;2022-09-09T04:36:05;14.90;99.90
17152;DHT22;8691;50.828;4.700;2022-09-09T04:38:32;15.00;99.90
17152;DHT22;8691;50.828;4.700;2022-09-09T04:40:59;15.00;99.90
17152;DHT22;8691;50.828;4.700;2022-09-09T04:43:26;15.10;99.90
17152;DHT22;8691;50.828;4.700;2022-09-09T04:45:53;15.10;99.90
17152;DHT22;8691;50.828;4.700;2022-09-09T04:48:20;15.10;99.90
17152;DHT22;8691;50.828;4.700;2022-09-09T04:51:14;15.00;99.90
17152;DHT22;8691;50.828;4.700;2022-09-09T04:53:20;15.00;99.90
17152;DHT22;8691;50.828;4.700;2022-09-09T04:55:46;14.90;99.90
17152;DHT22;8691;50.828;4.700;2022-09-09T04:58:13;14.80;99.90
17152;DHT22;8691;50.828;4.700;2022-09-09T05:00:40;14.80;99.90
17152;DHT22;8691;50.828;4.700;2022-09-09T05:03:07;14.70;99.90
17152;DHT22;8691;50.828;4.700;2022-09-09T05:05:33;14.70;99.90
17152;DHT22;8691;50.828;4.700;2022-09-09T05:08:04;14.70;99.90
17152;DHT22;8691;50.828;4.700;2022-09-09T05:10:30;14.70;99.90
17152;DHT22;8691;50.828;4.700;2022-09-09T05:12:58;14.70;99.90
17152;DHT22;8691;50.828;4.700;2022-09-09T05:15:25;14.70;99.90
17152;DHT22;8691;50.828;4.700;2022-09-09T05:17:51;14.70;99.90
17152;DHT22;8691;50.828;4.700;2022-09-09T05:20:18;14.70;99.90
17152;DHT22;8691;50.828;4.700;2022-09-09T05:22:45;14.70;99.90
17152;DHT22;8691;50.828;4.700;2022-09-09T05:25:12;14.80;99.90
17152;DHT22;8691;50.828;4.700;2022-09-09T05:27:39;15.00;99.90
17152;DHT22;8691;50.828;4.700;2022-09-09T05:30:05;15.10;99.90
17152;DHT22;8691;50.828;4.700;2022-09-09T05:32:32;15.20;99.90
17152;DHT22;8691;50.828;4.700;2022-09-09T05:34:59;15.30;99.90
17152;DHT22;8691;50.828;4.700;2022-09-09T05:37:26;15.40;99.90
17152;DHT22;8691;50.828;4.700;2022-09-09T05:39:53;15.50;99.90
17152;DHT22;8691;50.828;4.700;2022-09-09T05:42:19;15.60;99.90
17152;DHT22;8691;50.828;4.700;2022-09-09T05:44:47;15.80;99.90
17152;DHT22;8691;50.828;4.700;2022-09-09T05:47:14;15.70;99.90
17152;DHT22;8691;50.828;4.700;2022-09-09T05:49:41;15.90;99.90
17152;DHT22;8691;50.828;4.700;2022-09-09T05:52:07;16.10;99.90
17152;DHT22;8691;50.828;4.700;2022-09-09T05:54:34;16.20;99.90
17152;DHT22;8691;50.828;4.700;2022-09-09T05:57:01;16.30;99.90
17152;DHT22;8691;50.828;4.700;2022-09-09T05:59:28;16.40;99.90
17152;DHT22;8691;50.828;4.700;2022-09-09T06:01:55;16.50;99.90
17152;DHT22;8691;50.828;4.700;2022-09-09T06:04:22;16.60;99.90
17152;DHT22;8691;50.828;4.700;2022-09-09T06:06:49;16.80;99.90
17152;DHT22;8691;50.828;4.700;2022-09-09T06:09:16;17.00;99.90
17152;DHT22;8691;50.828;4.700;2022-09-09T06:11:43;17.00;99.90
17152;DHT22;8691;50.828;4.700;2022-09-09T06:14:10;17.00;99.90
17152;DHT22;8691;50.828;4.700;2022-09-09T06:16:37;17.00;99.90
17152;DHT22;8691;50.828;4.700;2022-09-09T06:19:07;16.90;99.90
17152;DHT22;8691;50.828;4.700;2022-09-09T06:21:34;16.80;99.90
17152;DHT22;8691;50.828;4.700;2022-09-09T06:24:00;16.70;99.90
17152;DHT22;8691;50.828;4.700;2022-09-09T06:26:30;16.70;99.90
17152;DHT22;8691;50.828;4.700;2022-09-09T06:28:56;16.80;99.90
17152;DHT22;8691;50.828;4.700;2022-09-09T06:31:24;16.70;99.90
17152;DHT22;8691;50.828;4.700;2022-09-09T06:33:50;16.70;99.90
17152;DHT22;8691;50.828;4.700;2022-09-09T06:36:21;16.70;99.90
17152;DHT22;8691;50.828;4.700;2022-09-09T06:38:47;16.70;99.90
17152;DHT22;8691;50.828;4.700;2022-09-09T06:41:15;16.90;99.90
17152;DHT22;8691;50.828;4.700;2022-09-09T06:43:41;17.20;99.90
17152;DHT22;8691;50.828;4.700;2022-09-09T06:48:43;18.00;99.90
17152;DHT22;8691;50.828;4.700;2022-09-09T06:51:17;18.80;99.90
17152;DHT22;8691;50.828;4.700;2022-09-09T06:53:44;18.80;99.90
17152;DHT22;8691;50.828;4.700;2022-09-09T06:58:39;19.20;99.90
17152;DHT22;8691;50.828;4.700;2022-09-09T07:01:07;19.20;99.90
17152;DHT22;8691;50.828;4.700;2022-09-09T07:03:34;18.40;99.90
17152;DHT22;8691;50.828;4.700;2022-09-09T07:06:01;18.30;99.90
17152;DHT22;8691;50.828;4.700;2022-09-09T07:08:28;18.00;99.90
17152;DHT22;8691;50.828;4.700;2022-09-09T07:11:01;17.80;99.90
17152;DHT22;8691;50.828;4.700;2022-09-09T07:13:24;17.60;99.90
17152;DHT22;8691;50.828;4.700;2022-09-09T07:15:51;17.40;99.90
17152;DHT22;8691;50.828;4.700;2022-09-09T07:18:19;17.40;99.90
17152;DHT22;8691;50.828;4.700;2022-09-09T07:20:54;17.50;99.90
17152;DHT22;8691;50.828;4.700;2022-09-09T07:23:22;17.80;99.90
17152;DHT22;8691;50.828;4.700;2022-09-09T07:25:49;17.80;99.90
17152;DHT22;8691;50.828;4.700;2022-09-09T07:28:16;17.90;99.90
17152;DHT22;8691;50.828;4.700;2022-09-09T07:30:43;17.80;99.90
17152;DHT22;8691;50.828;4.700;2022-09-09T07:33:10;17.90;99.90
17152;DHT22;8691;50.828;4.700;2022-09-09T07:35:36;17.90;99.90
17152;DHT22;8691;50.828;4.700;2022-09-09T07:38:04;17.80;99.90
17152;DHT22;8691;50.828;4.700;2022-09-09T07:40:33;17.80;99.90
17152;DHT22;8691;50.828;4.700;2022-09-09T07:43:00;18.00;99.90
17152;DHT22;8691;50.828;4.700;2022-09-09T07:45:27;17.90;99.90
17152;DHT22;8691;50.828;4.700;2022-09-09T07:47:56;17.90;99.90
17152;DHT22;8691;50.828;4.700;2022-09-09T07:50:23;17.80;99.90
17152;DHT22;8691;50.828;4.700;2022-09-09T07:52:50;17.90;99.90
17152;DHT22;8691;50.828;4.700;2022-09-09T07:55:16;18.00;99.90
17152;DHT22;8691;50.828;4.700;2022-09-09T07:57:43;18.00;99.90
17152;DHT22;8691;50.828;4.700;2022-09-09T08:00:12;18.10;99.90
17152;DHT22;8691;50.828;4.700;2022-09-09T08:02:39;18.40;99.90
17152;DHT22;8691;50.828;4.700;2022-09-09T08:05:07;18.70;99.90
17152;DHT22;8691;50.828;4.700;2022-09-09T08:07:35;18.80;99.90
17152;DHT22;8691;50.828;4.700;2022-09-09T08:10:03;18.90;99.90
17152;DHT22;8691;50.828;4.700;2022-09-09T08:12:29;18.80;99.90
17152;DHT22;8691;50.828;4.700;2022-09-09T08:14:56;19.00;99.90
17152;DHT22;8691;50.828;4.700;2022-09-09T08:17:23;19.00;99.90
17152;DHT22;8691;50.828;4.700;2022-09-09T08:19:50;19.00;99.90
17152;DHT22;8691;50.828;4.700;2022-09-09T08:22:17;19.00;99.90
17152;DHT22;8691;50.828;4.700;2022-09-09T08:24:43;19.20;99.90
17152;DHT22;8691;50.828;4.700;2022-09-09T08:27:10;19.70;99.90
17152;DHT22;8691;50.828;4.700;2022-09-09T08:29:37;20.30;99.90
17152;DHT22;8691;50.828;4.700;2022-09-09T08:32:04;20.90;99.90
17152;DHT22;8691;50.828;4.700;2022-09-09T08:34:31;21.40;99.90
17152;DHT22;8691;50.828;4.700;2022-09-09T08:36:58;21.40;99.90
17152;DHT22;8691;50.828;4.700;2022-09-09T08:39:25;21.10;99.90
17152;DHT22;8691;50.828;4.700;2022-09-09T08:42:16;21.00;99.90
17152;DHT22;8691;50.828;4.700;2022-09-09T08:44:50;20.70;99.90
17152;DHT22;8691;50.828;4.700;2022-09-09T08:47:28;20.20;99.90
17152;DHT22;8691;50.828;4.700;2022-09-09T08:55:28;19.30;99.90
17152;DHT22;8691;50.828;4.700;2022-09-09T08:57:54;19.10;99.90
17152;DHT22;8691;50.828;4.700;2022-09-09T09:00:20;18.90;99.90
17152;DHT22;8691;50.828;4.700;2022-09-09T09:05:46;18.50;99.90
17152;DHT22;8691;50.828;4.700;2022-09-09T09:11:02;18.40;99.90
17152;DHT22;8691;50.828;4.700;2022-09-09T09:13:48;18.50;99.90
17152;DHT22;8691;50.828;4.700;2022-09-09T09:18:43;18.00;99.90
17152;DHT22;8691;50.828;4.700;2022-09-09T09:23:59;17.90;99.90
17152;DHT22;8691;50.828;4.700;2022-09-09T09:26:30;18.00;99.90
17152;DHT22;8691;50.828;4.700;2022-09-09T09:28:53;18.00;99.90
17152;DHT22;8691;50.828;4.700;2022-09-09T09:31:19;17.80;99.90
17152;DHT22;8691;50.828;4.700;2022-09-09T09:33:49;17.70;99.90
17152;DHT22;8691;50.828;4.700;2022-09-09T09:36:16;17.80;99.90
17152;DHT22;8691;50.828;4.700;2022-09-09T09:38:53;17.70;99.90
17152;DHT22;8691;50.828;4.700;2022-09-09T09:41:38;17.90;99.90
17152;DHT22;8691;50.828;4.700;2022-09-09T09:44:05;17.90;99.90
17152;DHT22;8691;50.828;4.700;2022-09-09T09:46:31;17.90;99.90
17152;DHT22;8691;50.828;4.700;2022-09-09T09:49:04;17.90;99.90
17152;DHT22;8691;50.828;4.700;2022-09-09T09:51:31;17.90;99.90
17152;DHT22;8691;50.828;4.700;2022-09-09T09:54:26;18.10;99.90
17152;DHT22;8691;50.828;4.700;2022-09-09T09:56:49;18.10;99.90
17152;DHT22;8691;50.828;4.700;2022-09-09T09:59:24;18.20;99.90
17152;DHT22;8691;50.828;4.700;2022-09-09T10:01:46;18.20;99.90
17152;DHT22;8691;50.828;4.700;2022-09-09T10:04:18;18.40;99.90
17152;DHT22;8691;50.828;4.700;2022-09-09T10:06:44;18.30;99.90
17152;DHT22;8691;50.828;4.700;2022-09-09T10:09:29;18.20;99.90
17152;DHT22;8691;50.828;4.700;2022-09-09T10:14:43;18.20;99.90
17152;DHT22;8691;50.828;4.700;2022-09-09T10:17:33;18.30;99.90
17152;DHT22;8691;50.828;4.700;2022-09-09T10:20:17;18.30;99.90
17152;DHT22;8691;50.828;4.700;2022-09-09T10:22:44;18.20;99.90
17152;DHT22;8691;50.828;4.700;2022-09-09T10:25:21;18.10;99.90
17152;DHT22;8691;50.828;4.700;2022-09-09T10:33:37;18.10;99.90
17152;DHT22;8691;50.828;4.700;2022-09-09T10:36:13;18.30;99.90
17152;DHT22;8691;50.828;4.700;2022-09-09T10:38:45;18.40;99.90
17152;DHT22;8691;50.828;4.700;2022-09-09T10:41:34;18.60;99.90
17152;DHT22;8691;50.828;4.700;2022-09-09T10:44:15;18.60;99.90
17152;DHT22;8691;50.828;4.700;2022-09-09T10:46:51;18.60;99.90
17152;DHT22;8691;50.828;4.700;2022-09-09T10:52:26;18.60;99.90
17152;DHT22;8691;50.828;4.700;2022-09-09T10:55:00;19.00;99.90
17152;DHT22;8691;50.828;4.700;2022-09-09T11:00:02;19.20;99.90
17152;DHT22;8691;50.828;4.700;2022-09-09T11:02:28;19.40;99.90
17152;DHT22;8691;50.828;4.700;2022-09-09T11:05:24;19.40;99.90
17152;DHT22;8691;50.828;4.700;2022-09-09T11:07:58;19.50;99.90
17152;DHT22;8691;50.828;4.700;2022-09-09T11:10:23;19.70;99.90
17152;DHT22;8691;50.828;4.700;2022-09-09T11:12:47;19.80;99.90
17152;DHT22;8691;50.828;4.700;2022-09-09T11:15:17;20.00;99.90
17152;DHT22;8691;50.828;4.700;2022-09-09T11:17:52;20.10;99.90
17152;DHT22;8691;50.828;4.700;2022-09-09T11:20:17;20.40;99.90
17152;DHT22;8691;50.828;4.700;2022-09-09T11:23:08;20.20;99.90
17152;DHT22;8691;50.828;4.700;2022-09-09T11:25:36;20.10;99.90
17152;DHT22;8691;50.828;4.700;2022-09-09T11:36:16;20.70;99.90
17152;DHT22;8691;50.828;4.700;2022-09-09T11:38:46;21.00;99.90
17152;DHT22;8691;50.828;4.700;2022-09-09T11:41:15;20.90;99.90
17152;DHT22;8691;50.828;4.700;2022-09-09T11:43:45;21.00;99.90
17152;DHT22;8691;50.828;4.700;2022-09-09T11:46:12;21.00;99.90
17152;DHT22;8691;50.828;4.700;2022-09-09T11:48:39;20.60;99.90
17152;DHT22;8691;50.828;4.700;2022-09-09T11:53:51;20.60;99.90
17152;DHT22;8691;50.828;4.700;2022-09-09T11:59:03;20.90;99.90
17152;DHT22;8691;50.828;4.700;2022-09-09T12:04:12;21.10;99.90
17152;DHT22;8691;50.828;4.700;2022-09-09T12:06:53;21.10;99.90
17152;DHT22;8691;50.828;4.700;2022-09-09T12:09:33;21.00;99.90
17152;DHT22;8691;50.828;4.700;2022-09-09T12:14:43;21.30;99.90
17152;DHT22;8691;50.828;4.700;2022-09-09T12:17:22;21.40;99.90
17152;DHT22;8691;50.828;4.700;2022-09-09T12:19:48;21.20;99.90
17152;DHT22;8691;50.828;4.700;2022-09-09T12:22:25;21.00;99.90
17152;DHT22;8691;50.828;4.700;2022-09-09T12:24:53;20.80;99.90
17152;DHT22;8691;50.828;4.700;2022-09-09T12:27:29;20.70;99.90
17152;DHT22;8691;50.828;4.700;2022-09-09T12:30:07;20.80;99.90
17152;DHT22;8691;50.828;4.700;2022-09-09T12:32:30;21.40;99.90
17152;DHT22;8691;50.828;4.700;2022-09-09T12:35:00;21.80;99.90
17152;DHT22;8691;50.828;4.700;2022-09-09T12:37:32;22.10;99.90
17152;DHT22;8691;50.828;4.700;2022-09-09T12:39:57;21.80;99.90
17152;DHT22;8691;50.828;4.700;2022-09-09T12:42:23;21.90;99.90
17152;DHT22;8691;50.828;4.700;2022-09-09T12:44:55;21.70;99.90
17152;DHT22;8691;50.828;4.700;2022-09-09T12:47:18;21.70;99.90
17152;DHT22;8691;50.828;4.700;2022-09-09T12:49:44;21.80;99.90
17152;DHT22;8691;50.828;4.700;2022-09-09T12:52:15;21.70;99.90
17152;DHT22;8691;50.828;4.700;2022-09-09T12:54:43;21.70;99.90
17152;DHT22;8691;50.828;4.700;2022-09-09T12:57:10;21.40;99.90
17152;DHT22;8691;50.828;4.700;2022-09-09T12:59:39;21.40;99.90
17152;DHT22;8691;50.828;4.700;2022-09-09T13:02:21;21.40;99.90
17152;DHT22;8691;50.828;4.700;2022-09-09T13:04:47;21.40;99.90
17152;DHT22;8691;50.828;4.700;2022-09-09T13:07:14;21.40;99.90
17152;DHT22;8691;50.828;4.700;2022-09-09T13:09:40;21.50;99.90
17152;DHT22;8691;50.828;4.700;2022-09-09T13:12:11;21.50;99.90
17152;DHT22;8691;50.828;4.700;2022-09-09T13:14:35;21.40;99.90
17152;DHT22;8691;50.828;4.700;2022-09-09T13:17:03;21.50;99.90
17152;DHT22;8691;50.828;4.700;2022-09-09T13:19:31;21.40;99.90
17152;DHT22;8691;50.828;4.700;2022-09-09T13:21:56;21.40;99.90
17152;DHT22;8691;50.828;4.700;2022-09-09T13:24:27;21.40;99.90
17152;DHT22;8691;50.828;4.700;2022-09-09T13:26:59;21.50;99.90
17152;DHT22;8691;50.828;4.700;2022-09-09T13:29:25;21.70;99.90
17152;DHT22;8691;50.828;4.700;2022-09-09T13:31:52;21.70;99.90
17152;DHT22;8691;50.828;4.700;2022-09-09T13:34:32;21.60;99.90
17152;DHT22;8691;50.828;4.700;2022-09-09T13:36:59;21.80;99.90
17152;DHT22;8691;50.828;4.700;2022-09-09T13:39:25;21.70;99.90
17152;DHT22;8691;50.828;4.700;2022-09-09T13:41:52;21.70;99.90
17152;DHT22;8691;50.828;4.700;2022-09-09T13:44:25;21.70;99.90
17152;DHT22;8691;50.828;4.700;2022-09-09T13:47:18;21.80;99.90
17152;DHT22;8691;50.828;4.700;2022-09-09T13:49:43;21.50;99.90
17152;DHT22;8691;50.828;4.700;2022-09-09T13:52:11;21.40;99.90
17152;DHT22;8691;50.828;4.700;2022-09-09T13:54:37;21.60;99.90
17152;DHT22;8691;50.828;4.700;2022-09-09T13:57:04;21.80;99.90
17152;DHT22;8691;50.828;4.700;2022-09-09T13:59:31;22.10;99.90
17152;DHT22;8691;50.828;4.700;2022-09-09T14:01:58;22.10;99.90
17152;DHT22;8691;50.828;4.700;2022-09-09T14:04:25;22.00;99.90
17152;DHT22;8691;50.828;4.700;2022-09-09T14:06:52;22.20;99.90
17152;DHT22;8691;50.828;4.700;2022-09-09T14:09:19;22.20;99.90
17152;DHT22;8691;50.828;4.700;2022-09-09T14:11:45;22.20;99.90
17152;DHT22;8691;50.828;4.700;2022-09-09T14:14:12;22.30;99.90
17152;DHT22;8691;50.828;4.700;2022-09-09T14:16:39;22.50;99.90
17152;DHT22;8691;50.828;4.700;2022-09-09T14:19:07;22.20;99.90
17152;DHT22;8691;50.828;4.700;2022-09-09T14:21:34;22.30;99.90
17152;DHT22;8691;50.828;4.700;2022-09-09T14:24:01;22.30;99.90
17152;DHT22;8691;50.828;4.700;2022-09-09T14:26:28;22.20;99.90
17152;DHT22;8691;50.828;4.700;2022-09-09T14:28:55;22.00;99.90
17152;DHT22;8691;50.828;4.700;2022-09-09T14:31:22;21.80;99.90
17152;DHT22;8691;50.828;4.700;2022-09-09T14:33:49;21.70;99.90
17152;DHT22;8691;50.828;4.700;2022-09-09T14:36:16;22.00;99.90
17152;DHT22;8691;50.828;4.700;2022-09-09T14:38:42;22.30;99.90
17152;DHT22;8691;50.828;4.700;2022-09-09T14:41:14;22.60;99.90
17152;DHT22;8691;50.828;4.700;2022-09-09T14:43:40;22.60;99.90
17152;DHT22;8691;50.828;4.700;2022-09-09T14:46:07;22.70;99.90
17152;DHT22;8691;50.828;4.700;2022-09-09T14:48:34;22.60;99.90
17152;DHT22;8691;50.828;4.700;2022-09-09T14:51:12;22.30;99.90
17152;DHT22;8691;50.828;4.700;2022-09-09T14:53:35;22.30;99.90
17152;DHT22;8691;50.828;4.700;2022-09-09T14:56:11;22.50;99.90
17152;DHT22;8691;50.828;4.700;2022-09-09T14:58:36;22.60;99.90
17152;DHT22;8691;50.828;4.700;2022-09-09T15:01:03;22.50;99.90
17152;DHT22;8691;50.828;4.700;2022-09-09T15:03:29;22.40;99.90
17152;DHT22;8691;50.828;4.700;2022-09-09T15:05:56;22.30;99.90
17152;DHT22;8691;50.828;4.700;2022-09-09T15:08:24;22.30;99.90
17152;DHT22;8691;50.828;4.700;2022-09-09T15:10:51;22.30;99.90
17152;DHT22;8691;50.828;4.700;2022-09-09T15:13:18;22.30;99.90
17152;DHT22;8691;50.828;4.700;2022-09-09T15:15:44;22.40;99.90
17152;DHT22;8691;50.828;4.700;2022-09-09T15:18:11;22.50;99.90
17152;DHT22;8691;50.828;4.700;2022-09-09T15:20:39;22.10;99.90
17152;DHT22;8691;50.828;4.700;2022-09-09T15:23:06;22.10;99.90
17152;DHT22;8691;50.828;4.700;2022-09-09T15:25:33;21.70;99.90
17152;DHT22;8691;50.828;4.700;2022-09-09T15:27:59;21.50;99.90
17152;DHT22;8691;50.828;4.700;2022-09-09T15:30:26;21.40;99.90
17152;DHT22;8691;50.828;4.700;2022-09-09T15:32:53;21.20;99.90
17152;DHT22;8691;50.828;4.700;2022-09-09T15:35:20;20.70;99.90
17152;DHT22;8691;50.828;4.700;2022-09-09T15:37:47;20.70;99.90
17152;DHT22;8691;50.828;4.700;2022-09-09T15:40:14;20.80;99.90
17152;DHT22;8691;50.828;4.700;2022-09-09T15:42:41;20.80;99.90
17152;DHT22;8691;50.828;4.700;2022-09-09T15:45:09;21.00;99.90
17152;DHT22;8691;50.828;4.700;2022-09-09T15:47:35;21.10;99.90
17152;DHT22;8691;50.828;4.700;2022-09-09T15:50:02;21.10;99.90
17152;DHT22;8691;50.828;4.700;2022-09-09T15:52:29;21.10;99.90
17152;DHT22;8691;50.828;4.700;2022-09-09T15:54:56;21.10;99.90
17152;DHT22;8691;50.828;4.700;2022-09-09T15:57:22;21.10;99.90
17152;DHT22;8691;50.828;4.700;2022-09-09T15:59:49;21.20;99.90
17152;DHT22;8691;50.828;4.700;2022-09-09T16:02:16;21.30;99.90
17152;DHT22;8691;50.828;4.700;2022-09-09T16:04:44;21.40;99.90
17152;DHT22;8691;50.828;4.700;2022-09-09T16:07:11;21.40;99.90
17152;DHT22;8691;50.828;4.700;2022-09-09T16:09:39;21.50;99.90
17152;DHT22;8691;50.828;4.700;2022-09-09T16:12:06;21.50;99.90
17152;DHT22;8691;50.828;4.700;2022-09-09T16:14:33;21.60;99.90
17152;DHT22;8691;50.828;4.700;2022-09-09T16:16:59;21.60;99.90
17152;DHT22;8691;50.828;4.700;2022-09-09T16:19:26;21.50;99.90
17152;DHT22;8691;50.828;4.700;2022-09-09T16:21:53;21.50;99.90
17152;DHT22;8691;50.828;4.700;2022-09-09T16:24:21;21.60;99.90
17152;DHT22;8691;50.828;4.700;2022-09-09T16:26:48;21.60;99.90
17152;DHT22;8691;50.828;4.700;2022-09-09T16:29:15;21.40;99.90
17152;DHT22;8691;50.828;4.700;2022-09-09T16:31:41;21.20;99.90
17152;DHT22;8691;50.828;4.700;2022-09-09T16:34:09;21.10;99.90
17152;DHT22;8691;50.828;4.700;2022-09-09T16:36:36;21.00;99.90
17152;DHT22;8691;50.828;4.700;2022-09-09T16:39:03;20.90;99.90
17152;DHT22;8691;50.828;4.700;2022-09-09T16:41:30;20.70;99.90
17152;DHT22;8691;50.828;4.700;2022-09-09T16:43:59;20.60;99.90
17152;DHT22;8691;50.828;4.700;2022-09-09T16:46:26;20.40;99.90
17152;DHT22;8691;50.828;4.700;2022-09-09T16:48:53;20.30;99.90
17152;DHT22;8691;50.828;4.700;2022-09-09T16:51:21;20.20;99.90
17152;DHT22;8691;50.828;4.700;2022-09-09T16:53:46;20.20;99.90
17152;DHT22;8691;50.828;4.700;2022-09-09T16:56:15;20.00;99.90
17152;DHT22;8691;50.828;4.700;2022-09-09T16:58:40;19.90;99.90
17152;DHT22;8691;50.828;4.700;2022-09-09T17:01:07;19.70;99.90
17152;DHT22;8691;50.828;4.700;2022-09-09T17:03:35;18.90;99.90
17152;DHT22;8691;50.828;4.700;2022-09-09T17:06:02;18.90;99.90
17152;DHT22;8691;50.828;4.700;2022-09-09T17:08:29;18.50;99.90
17152;DHT22;8691;50.828;4.700;2022-09-09T17:10:56;18.30;99.90
17152;DHT22;8691;50.828;4.700;2022-09-09T17:13:22;18.20;99.90
17152;DHT22;8691;50.828;4.700;2022-09-09T17:15:49;18.30;99.90